sensor_id;sensor_type;location;lat;lon;timestamp;P1;durP1;ratioP1;P2;durP2;ratioP2
76373;SDS011;65197;50.164;8.012;2023-11-22T00:01:51;9.07;;;5.10;;
76373;SDS011;65197;50.164;8.012;2023-11-22T00:04:17;9.85;;;5.63;;
76373;SDS011;65197;50.164;8.012;2023-11-22T00:06:43;8.55;;;5.30;;
76373;SDS011;65197;50.164;8.012;2023-11-22T00:09:08;9.85;;;5.63;;
76373;SDS011;65197;50.164;8.012;2023-11-22T00:11:34;10.45;;;5.65;;
76373;SDS011;65197;50.164;8.012;2023-11-22T00:14:00;11.55;;;6.10;;
76373;SDS011;65197;50.164;8.012;2023-11-22T00:16:25;14.35;;;5.93;;
76373;SDS011;65197;50.164;8.012;2023-11-22T00:18:51;9.13;;;5.38;;
76373;SDS011;65197;50.164;8.012;2023-11-22T00:21:16;10.57;;;6.10;;
76373;SDS011;65197;50.164;8.012;2023-11-22T00:23:42;9.95;;;5.53;;
76373;SDS011;65197;50.164;8.012;2023-11-22T00:26:07;9.40;;;5.80;;
76373;SDS011;65197;50.164;8.012;2023-11-22T00:28:33;12.88;;;5.78;;
76373;SDS011;65197;50.164;8.012;2023-11-22T00:30:59;10.82;;;5.65;;
76373;SDS011;65197;50.164;8.012;2023-11-22T00:33:25;11.40;;;6.40;;
76373;SDS011;65197;50.164;8.012;2023-11-22T00:35:50;10.60;;;6.50;;
76373;SDS011;65197;50.164;8.012;2023-11-22T00:38:18;12.85;;;5.50;;
76373;SDS011;65197;50.164;8.012;2023-11-22T00:40:43;12.73;;;6.10;;
76373;SDS011;65197;50.164;8.012;2023-11-22T00:43:09;11.13;;;5.75;;
76373;SDS011;65197;50.164;8.012;2023-11-22T00:45:34;11.93;;;6.55;;
76373;SDS011;65197;50.164;8.012;2023-11-22T00:48:00;12.07;;;6.38;;
76373;SDS011;65197;50.164;8.012;2023-11-22T00:50:26;11.10;;;5.75;;
76373;SDS011;65197;50.164;8.012;2023-11-22T00:52:51;11.65;;;5.75;;
76373;SDS011;65197;50.164;8.012;2023-11-22T00:55:16;11.15;;;5.18;;
76373;SDS011;65197;50.164;8.012;2023-11-22T00:57:42;10.65;;;5.55;;
76373;SDS011;65197;50.164;8.012;2023-11-22T01:00:08;7.85;;;5.20;;
76373;SDS011;65197;50.164;8.012;2023-11-22T01:02:35;9.20;;;5.60;;
76373;SDS011;65197;50.164;8.012;2023-11-22T01:05:04;11.43;;;6.35;;
76373;SDS011;65197;50.164;8.012;2023-11-22T01:07:42;10.77;;;6.10;;
76373;SDS011;65197;50.164;8.012;2023-11-22T01:10:07;8.85;;;5.70;;
76373;SDS011;65197;50.164;8.012;2023-11-22T01:12:33;8.50;;;4.85;;
76373;SDS011;65197;50.164;8.012;2023-11-22T01:14:59;9.32;;;5.07;;
76373;SDS011;65197;50.164;8.012;2023-11-22T01:17:24;8.10;;;5.05;;
76373;SDS011;65197;50.164;8.012;2023-11-22T01:19:49;10.77;;;5.63;;
76373;SDS011;65197;50.164;8.012;2023-11-22T01:22:17;10.18;;;5.78;;
76373;SDS011;65197;50.164;8.012;2023-11-22T01:24:43;9.77;;;5.70;;
76373;SDS011;65197;50.164;8.012;2023-11-22T01:27:08;11.13;;;5.78;;
76373;SDS011;65197;50.164;8.012;2023-11-22T01:29:34;10.40;;;5.82;;
76373;SDS011;65197;50.164;8.012;2023-11-22T01:32:00;9.75;;;5.97;;
76373;SDS011;65197;50.164;8.012;2023-11-22T01:34:25;9.48;;;4.93;;
76373;SDS011;65197;50.164;8.012;2023-11-22T01:36:51;10.23;;;5.97;;
76373;SDS011;65197;50.164;8.012;2023-11-22T01:39:16;9.15;;;5.20;;
76373;SDS011;65197;50.164;8.012;2023-11-22T01:41:45;10.13;;;5.93;;
76373;SDS011;65197;50.164;8.012;2023-11-22T01:44:10;11.43;;;5.65;;
76373;SDS011;65197;50.164;8.012;2023-11-22T01:46:36;12.05;;;6.15;;
76373;SDS011;65197;50.164;8.012;2023-11-22T01:49:02;10.68;;;5.72;;
76373;SDS011;65197;50.164;8.012;2023-11-22T01:51:28;9.98;;;5.82;;
76373;SDS011;65197;50.164;8.012;2023-11-22T01:53:54;10.65;;;5.53;;
76373;SDS011;65197;50.164;8.012;2023-11-22T01:56:22;11.20;;;6.80;;
76373;SDS011;65197;50.164;8.012;2023-11-22T02:01:16;9.73;;;5.32;;
76373;SDS011;65197;50.164;8.012;2023-11-22T02:03:42;10.35;;;6.15;;
76373;SDS011;65197;50.164;8.012;2023-11-22T02:06:10;10.43;;;6.38;;
76373;SDS011;65197;50.164;8.012;2023-11-22T02:08:35;8.63;;;5.60;;
76373;SDS011;65197;50.164;8.012;2023-11-22T02:11:01;12.77;;;5.60;;
76373;SDS011;65197;50.164;8.012;2023-11-22T02:13:30;11.23;;;5.43;;
76373;SDS011;65197;50.164;8.012;2023-11-22T02:15:56;9.75;;;5.25;;
76373;SDS011;65197;50.164;8.012;2023-11-22T02:18:24;10.50;;;5.85;;
76373;SDS011;65197;50.164;8.012;2023-11-22T02:20:52;9.82;;;5.20;;
76373;SDS011;65197;50.164;8.012;2023-11-22T02:23:18;8.88;;;5.63;;
76373;SDS011;65197;50.164;8.012;2023-11-22T02:25:43;9.30;;;5.47;;
76373;SDS011;65197;50.164;8.012;2023-11-22T02:28:10;12.40;;;6.15;;
76373;SDS011;65197;50.164;8.012;2023-11-22T02:30:36;11.13;;;6.50;;
76373;SDS011;65197;50.164;8.012;2023-11-22T02:33:02;10.93;;;5.68;;
76373;SDS011;65197;50.164;8.012;2023-11-22T02:35:28;10.73;;;5.40;;
76373;SDS011;65197;50.164;8.012;2023-11-22T02:37:53;9.02;;;5.75;;
76373;SDS011;65197;50.164;8.012;2023-11-22T02:40:19;11.80;;;7.03;;
76373;SDS011;65197;50.164;8.012;2023-11-22T02:42:47;9.55;;;5.45;;
76373;SDS011;65197;50.164;8.012;2023-11-22T02:45:17;9.50;;;5.20;;
76373;SDS011;65197;50.164;8.012;2023-11-22T02:47:44;9.18;;;5.32;;
76373;SDS011;65197;50.164;8.012;2023-11-22T02:50:11;9.63;;;5.47;;
76373;SDS011;65197;50.164;8.012;2023-11-22T02:52:40;11.40;;;5.63;;
76373;SDS011;65197;50.164;8.012;2023-11-22T02:55:06;9.93;;;5.07;;
76373;SDS011;65197;50.164;8.012;2023-11-22T02:57:31;12.18;;;6.28;;
76373;SDS011;65197;50.164;8.012;2023-11-22T02:59:57;13.57;;;6.68;;
76373;SDS011;65197;50.164;8.012;2023-11-22T03:02:23;8.57;;;5.32;;
76373;SDS011;65197;50.164;8.012;2023-11-22T03:04:49;10.02;;;5.40;;
76373;SDS011;65197;50.164;8.012;2023-11-22T03:07:18;9.45;;;5.10;;
76373;SDS011;65197;50.164;8.012;2023-11-22T03:09:43;9.32;;;5.10;;
76373;SDS011;65197;50.164;8.012;2023-11-22T03:12:10;13.32;;;6.50;;
76373;SDS011;65197;50.164;8.012;2023-11-22T03:14:37;11.07;;;6.22;;
76373;SDS011;65197;50.164;8.012;2023-11-22T03:17:04;8.82;;;5.43;;
76373;SDS011;65197;50.164;8.012;2023-11-22T03:19:30;9.30;;;5.32;;
76373;SDS011;65197;50.164;8.012;2023-11-22T03:21:55;8.48;;;5.55;;
76373;SDS011;65197;50.164;8.012;2023-11-22T03:24:21;9.85;;;5.47;;
76373;SDS011;65197;50.164;8.012;2023-11-22T03:26:47;10.68;;;5.50;;
76373;SDS011;65197;50.164;8.012;2023-11-22T03:29:14;9.55;;;5.57;;
76373;SDS011;65197;50.164;8.012;2023-11-22T03:31:41;9.77;;;5.80;;
76373;SDS011;65197;50.164;8.012;2023-11-22T03:34:07;9.02;;;5.35;;
76373;SDS011;65197;50.164;8.012;2023-11-22T03:36:32;9.73;;;4.88;;
76373;SDS011;65197;50.164;8.012;2023-11-22T03:38:58;9.65;;;5.20;;
76373;SDS011;65197;50.164;8.012;2023-11-22T03:41:23;10.48;;;5.65;;
76373;SDS011;65197;50.164;8.012;2023-11-22T03:43:49;7.72;;;3.95;;
76373;SDS011;65197;50.164;8.012;2023-11-22T03:46:14;8.63;;;4.90;;
76373;SDS011;65197;50.164;8.012;2023-11-22T03:48:40;9.38;;;5.10;;
76373;SDS011;65197;50.164;8.012;2023-11-22T03:51:05;9.25;;;5.30;;
76373;SDS011;65197;50.164;8.012;2023-11-22T03:53:31;9.98;;;6.32;;
76373;SDS011;65197;50.164;8.012;2023-11-22T03:55:57;9.77;;;5.22;;
76373;SDS011;65197;50.164;8.012;2023-11-22T03:58:22;9.70;;;5.63;;
76373;SDS011;65197;50.164;8.012;2023-11-22T04:00:48;10.05;;;5.13;;
76373;SDS011;65197;50.164;8.012;2023-11-22T04:03:14;9.77;;;5.63;;
76373;SDS011;65197;50.164;8.012;2023-11-22T04:05:40;9.40;;;5.78;;
76373;SDS011;65197;50.164;8.012;2023-11-22T04:08:05;11.93;;;6.13;;
76373;SDS011;65197;50.164;8.012;2023-11-22T04:10:33;14.20;;;5.45;;
76373;SDS011;65197;50.164;8.012;2023-11-22T04:12:58;11.15;;;5.95;;
76373;SDS011;65197;50.164;8.012;2023-11-22T04:15:24;13.07;;;6.63;;
76373;SDS011;65197;50.164;8.012;2023-11-22T04:17:50;11.40;;;5.97;;
76373;SDS011;65197;50.164;8.012;2023-11-22T04:20:19;14.15;;;5.75;;
76373;SDS011;65197;50.164;8.012;2023-11-22T04:22:44;10.45;;;6.25;;
76373;SDS011;65197;50.164;8.012;2023-11-22T04:25:10;10.75;;;5.63;;
76373;SDS011;65197;50.164;8.012;2023-11-22T04:27:38;11.85;;;6.32;;
76373;SDS011;65197;50.164;8.012;2023-11-22T04:30:05;11.13;;;5.43;;
76373;SDS011;65197;50.164;8.012;2023-11-22T04:34:58;12.38;;;5.45;;
76373;SDS011;65197;50.164;8.012;2023-11-22T04:37:24;11.23;;;5.55;;
76373;SDS011;65197;50.164;8.012;2023-11-22T04:39:51;12.52;;;5.38;;
76373;SDS011;65197;50.164;8.012;2023-11-22T04:42:17;9.90;;;5.78;;
76373;SDS011;65197;50.164;8.012;2023-11-22T04:44:43;11.23;;;5.53;;
76373;SDS011;65197;50.164;8.012;2023-11-22T04:47:08;14.27;;;5.22;;
76373;SDS011;65197;50.164;8.012;2023-11-22T04:49:33;9.38;;;5.30;;
76373;SDS011;65197;50.164;8.012;2023-11-22T04:51:59;10.00;;;5.28;;
76373;SDS011;65197;50.164;8.012;2023-11-22T04:54:24;8.65;;;5.22;;
76373;SDS011;65197;50.164;8.012;2023-11-22T04:56:50;10.95;;;5.03;;
76373;SDS011;65197;50.164;8.012;2023-11-22T04:59:15;9.27;;;4.88;;
76373;SDS011;65197;50.164;8.012;2023-11-22T05:01:41;9.07;;;5.15;;
76373;SDS011;65197;50.164;8.012;2023-11-22T05:04:06;8.35;;;4.65;;
76373;SDS011;65197;50.164;8.012;2023-11-22T05:06:31;9.15;;;4.80;;
76373;SDS011;65197;50.164;8.012;2023-11-22T05:08:57;10.73;;;6.45;;
76373;SDS011;65197;50.164;8.012;2023-11-22T05:11:22;9.45;;;4.80;;
76373;SDS011;65197;50.164;8.012;2023-11-22T05:13:47;12.05;;;5.40;;
76373;SDS011;65197;50.164;8.012;2023-11-22T05:16:15;8.98;;;4.60;;
76373;SDS011;65197;50.164;8.012;2023-11-22T05:18:41;8.88;;;4.00;;
76373;SDS011;65197;50.164;8.012;2023-11-22T05:21:06;10.40;;;4.97;;
76373;SDS011;65197;50.164;8.012;2023-11-22T05:23:32;10.10;;;5.07;;
76373;SDS011;65197;50.164;8.012;2023-11-22T05:25:58;8.85;;;5.13;;
76373;SDS011;65197;50.164;8.012;2023-11-22T05:28:26;9.20;;;5.30;;
76373;SDS011;65197;50.164;8.012;2023-11-22T05:30:52;13.00;;;6.85;;
76373;SDS011;65197;50.164;8.012;2023-11-22T05:33:18;11.60;;;6.07;;
76373;SDS011;65197;50.164;8.012;2023-11-22T05:35:43;11.05;;;6.07;;
76373;SDS011;65197;50.164;8.012;2023-11-22T05:38:09;12.23;;;6.05;;
76373;SDS011;65197;50.164;8.012;2023-11-22T05:40:35;8.95;;;5.35;;
76373;SDS011;65197;50.164;8.012;2023-11-22T05:43:00;11.02;;;5.70;;
76373;SDS011;65197;50.164;8.012;2023-11-22T05:45:26;10.05;;;5.38;;
76373;SDS011;65197;50.164;8.012;2023-11-22T05:47:52;7.88;;;4.68;;
76373;SDS011;65197;50.164;8.012;2023-11-22T05:50:17;9.40;;;5.72;;
76373;SDS011;65197;50.164;8.012;2023-11-22T05:52:43;8.75;;;5.30;;
76373;SDS011;65197;50.164;8.012;2023-11-22T05:55:09;10.40;;;4.88;;
76373;SDS011;65197;50.164;8.012;2023-11-22T05:57:35;8.00;;;4.78;;
76373;SDS011;65197;50.164;8.012;2023-11-22T06:00:00;7.25;;;3.90;;
76373;SDS011;65197;50.164;8.012;2023-11-22T06:02:26;8.60;;;4.05;;
76373;SDS011;65197;50.164;8.012;2023-11-22T06:04:51;7.03;;;3.90;;
76373;SDS011;65197;50.164;8.012;2023-11-22T06:07:17;10.15;;;5.15;;
76373;SDS011;65197;50.164;8.012;2023-11-22T06:09:42;9.55;;;5.00;;
76373;SDS011;65197;50.164;8.012;2023-11-22T06:12:07;8.75;;;4.45;;
76373;SDS011;65197;50.164;8.012;2023-11-22T06:14:33;9.00;;;4.88;;
76373;SDS011;65197;50.164;8.012;2023-11-22T06:16:58;7.05;;;4.50;;
76373;SDS011;65197;50.164;8.012;2023-11-22T06:19:24;9.65;;;5.53;;
76373;SDS011;65197;50.164;8.012;2023-11-22T06:21:49;6.63;;;3.97;;
76373;SDS011;65197;50.164;8.012;2023-11-22T06:24:14;6.85;;;4.32;;
76373;SDS011;65197;50.164;8.012;2023-11-22T06:26:43;10.55;;;5.15;;
76373;SDS011;65197;50.164;8.012;2023-11-22T06:29:09;9.60;;;5.00;;
76373;SDS011;65197;50.164;8.012;2023-11-22T06:31:34;8.02;;;4.65;;
76373;SDS011;65197;50.164;8.012;2023-11-22T06:34:00;6.40;;;4.15;;
76373;SDS011;65197;50.164;8.012;2023-11-22T06:36:26;8.95;;;4.65;;
76373;SDS011;65197;50.164;8.012;2023-11-22T06:38:53;10.40;;;5.50;;
76373;SDS011;65197;50.164;8.012;2023-11-22T06:41:21;6.85;;;4.55;;
76373;SDS011;65197;50.164;8.012;2023-11-22T06:43:49;9.90;;;4.68;;
76373;SDS011;65197;50.164;8.012;2023-11-22T06:46:14;5.95;;;3.25;;
76373;SDS011;65197;50.164;8.012;2023-11-22T06:48:41;4.22;;;2.90;;
76373;SDS011;65197;50.164;8.012;2023-11-22T06:51:08;5.80;;;3.78;;
76373;SDS011;65197;50.164;8.012;2023-11-22T06:53:34;5.20;;;3.08;;
76373;SDS011;65197;50.164;8.012;2023-11-22T06:56:00;8.57;;;3.95;;
76373;SDS011;65197;50.164;8.012;2023-11-22T06:58:26;8.02;;;4.55;;
76373;SDS011;65197;50.164;8.012;2023-11-22T07:00:51;8.65;;;4.97;;
76373;SDS011;65197;50.164;8.012;2023-11-22T07:03:17;3.95;;;2.65;;
76373;SDS011;65197;50.164;8.012;2023-11-22T07:05:42;6.57;;;4.05;;
76373;SDS011;65197;50.164;8.012;2023-11-22T07:08:08;7.75;;;3.60;;
76373;SDS011;65197;50.164;8.012;2023-11-22T07:10:33;6.80;;;3.17;;
76373;SDS011;65197;50.164;8.012;2023-11-22T07:13:00;6.65;;;3.03;;
76373;SDS011;65197;50.164;8.012;2023-11-22T07:15:28;4.97;;;3.15;;
76373;SDS011;65197;50.164;8.012;2023-11-22T07:17:54;7.35;;;2.92;;
76373;SDS011;65197;50.164;8.012;2023-11-22T07:20:20;6.47;;;3.53;;
76373;SDS011;65197;50.164;8.012;2023-11-22T07:22:46;4.47;;;2.67;;
76373;SDS011;65197;50.164;8.012;2023-11-22T07:25:12;5.88;;;3.15;;
76373;SDS011;65197;50.164;8.012;2023-11-22T07:27:49;4.85;;;3.47;;
76373;SDS011;65197;50.164;8.012;2023-11-22T07:30:16;5.10;;;3.13;;
76373;SDS011;65197;50.164;8.012;2023-11-22T07:32:44;4.30;;;2.95;;
76373;SDS011;65197;50.164;8.012;2023-11-22T07:35:09;6.63;;;3.15;;
76373;SDS011;65197;50.164;8.012;2023-11-22T07:37:35;5.35;;;2.90;;
76373;SDS011;65197;50.164;8.012;2023-11-22T07:40:01;5.15;;;3.08;;
76373;SDS011;65197;50.164;8.012;2023-11-22T07:42:28;5.85;;;2.92;;
76373;SDS011;65197;50.164;8.012;2023-11-22T07:44:54;4.75;;;2.42;;
76373;SDS011;65197;50.164;8.012;2023-11-22T07:47:21;4.40;;;2.78;;
76373;SDS011;65197;50.164;8.012;2023-11-22T07:49:49;3.40;;;2.33;;
76373;SDS011;65197;50.164;8.012;2023-11-22T07:52:14;4.72;;;2.55;;
76373;SDS011;65197;50.164;8.012;2023-11-22T07:54:39;3.33;;;2.38;;
76373;SDS011;65197;50.164;8.012;2023-11-22T07:57:05;7.18;;;3.58;;
76373;SDS011;65197;50.164;8.012;2023-11-22T07:59:32;4.45;;;2.13;;
76373;SDS011;65197;50.164;8.012;2023-11-22T08:01:58;4.78;;;2.75;;
76373;SDS011;65197;50.164;8.012;2023-11-22T08:04:23;3.80;;;2.28;;
76373;SDS011;65197;50.164;8.012;2023-11-22T08:06:49;6.03;;;2.53;;
76373;SDS011;65197;50.164;8.012;2023-11-22T08:09:16;6.35;;;2.97;;
76373;SDS011;65197;50.164;8.012;2023-11-22T08:11:42;5.57;;;3.08;;
76373;SDS011;65197;50.164;8.012;2023-11-22T08:14:08;7.28;;;2.88;;
76373;SDS011;65197;50.164;8.012;2023-11-22T08:16:33;6.65;;;3.58;;
76373;SDS011;65197;50.164;8.012;2023-11-22T08:19:03;6.07;;;3.28;;
76373;SDS011;65197;50.164;8.012;2023-11-22T08:21:30;6.00;;;3.42;;
76373;SDS011;65197;50.164;8.012;2023-11-22T08:23:55;5.07;;;2.90;;
76373;SDS011;65197;50.164;8.012;2023-11-22T08:26:21;7.30;;;2.78;;
76373;SDS011;65197;50.164;8.012;2023-11-22T08:28:46;13.73;;;6.90;;
76373;SDS011;65197;50.164;8.012;2023-11-22T08:31:12;12.60;;;5.25;;
76373;SDS011;65197;50.164;8.012;2023-11-22T08:33:38;6.47;;;3.58;;
76373;SDS011;65197;50.164;8.012;2023-11-22T08:36:07;6.22;;;3.65;;
76373;SDS011;65197;50.164;8.012;2023-11-22T08:38:34;6.35;;;3.63;;
76373;SDS011;65197;50.164;8.012;2023-11-22T08:41:01;6.03;;;3.25;;
76373;SDS011;65197;50.164;8.012;2023-11-22T08:43:33;5.80;;;3.72;;
76373;SDS011;65197;50.164;8.012;2023-11-22T08:45:59;6.57;;;3.53;;
76373;SDS011;65197;50.164;8.012;2023-11-22T08:48:26;6.13;;;2.90;;
76373;SDS011;65197;50.164;8.012;2023-11-22T08:50:51;6.72;;;3.40;;
76373;SDS011;65197;50.164;8.012;2023-11-22T08:53:20;5.97;;;3.92;;
76373;SDS011;65197;50.164;8.012;2023-11-22T08:55:46;5.65;;;3.60;;
76373;SDS011;65197;50.164;8.012;2023-11-22T08:58:12;5.15;;;3.08;;
76373;SDS011;65197;50.164;8.012;2023-11-22T09:00:38;5.85;;;3.42;;
76373;SDS011;65197;50.164;8.012;2023-11-22T09:03:06;5.50;;;3.30;;
76373;SDS011;65197;50.164;8.012;2023-11-22T09:05:38;5.70;;;3.75;;
76373;SDS011;65197;50.164;8.012;2023-11-22T09:08:07;12.90;;;6.55;;
76373;SDS011;65197;50.164;8.012;2023-11-22T09:10:38;6.25;;;3.88;;
76373;SDS011;65197;50.164;8.012;2023-11-22T09:13:04;7.85;;;4.28;;
76373;SDS011;65197;50.164;8.012;2023-11-22T09:15:30;4.55;;;2.90;;
76373;SDS011;65197;50.164;8.012;2023-11-22T09:17:58;6.60;;;3.38;;
76373;SDS011;65197;50.164;8.012;2023-11-22T09:20:24;7.07;;;4.07;;
76373;SDS011;65197;50.164;8.012;2023-11-22T09:22:53;5.40;;;3.08;;
76373;SDS011;65197;50.164;8.012;2023-11-22T09:27:48;5.75;;;3.47;;
76373;SDS011;65197;50.164;8.012;2023-11-22T09:30:16;5.45;;;3.58;;
76373;SDS011;65197;50.164;8.012;2023-11-22T09:33:04;6.95;;;3.58;;
76373;SDS011;65197;50.164;8.012;2023-11-22T09:35:31;9.18;;;4.60;;
76373;SDS011;65197;50.164;8.012;2023-11-22T09:38:00;7.50;;;3.70;;
76373;SDS011;65197;50.164;8.012;2023-11-22T09:40:26;12.18;;;6.25;;
76373;SDS011;65197;50.164;8.012;2023-11-22T09:42:53;21.30;;;10.68;;
76373;SDS011;65197;50.164;8.012;2023-11-22T09:45:20;6.65;;;4.78;;
76373;SDS011;65197;50.164;8.012;2023-11-22T09:47:46;6.25;;;4.07;;
76373;SDS011;65197;50.164;8.012;2023-11-22T09:50:19;6.18;;;4.03;;
76373;SDS011;65197;50.164;8.012;2023-11-22T09:52:52;7.80;;;4.47;;
76373;SDS011;65197;50.164;8.012;2023-11-22T09:55:25;6.65;;;3.92;;
76373;SDS011;65197;50.164;8.012;2023-11-22T09:57:53;8.00;;;4.20;;
76373;SDS011;65197;50.164;8.012;2023-11-22T10:00:19;5.10;;;3.90;;
76373;SDS011;65197;50.164;8.012;2023-11-22T10:02:46;11.40;;;4.63;;
76373;SDS011;65197;50.164;8.012;2023-11-22T10:05:12;17.52;;;8.40;;
76373;SDS011;65197;50.164;8.012;2023-11-22T10:07:38;15.75;;;9.70;;
76373;SDS011;65197;50.164;8.012;2023-11-22T10:10:04;8.50;;;5.10;;
76373;SDS011;65197;50.164;8.012;2023-11-22T10:12:31;6.78;;;4.28;;
76373;SDS011;65197;50.164;8.012;2023-11-22T10:15:17;5.95;;;3.35;;
76373;SDS011;65197;50.164;8.012;2023-11-22T10:18:17;5.20;;;3.33;;
76373;SDS011;65197;50.164;8.012;2023-11-22T10:20:39;6.35;;;3.67;;
76373;SDS011;65197;50.164;8.012;2023-11-22T10:23:09;6.35;;;3.05;;
76373;SDS011;65197;50.164;8.012;2023-11-22T10:25:35;6.45;;;3.50;;
76373;SDS011;65197;50.164;8.012;2023-11-22T10:28:01;5.13;;;3.38;;
76373;SDS011;65197;50.164;8.012;2023-11-22T10:30:27;6.80;;;3.50;;
76373;SDS011;65197;50.164;8.012;2023-11-22T10:32:53;7.53;;;4.45;;
76373;SDS011;65197;50.164;8.012;2023-11-22T10:35:20;7.65;;;3.45;;
76373;SDS011;65197;50.164;8.012;2023-11-22T10:37:47;5.78;;;3.90;;
76373;SDS011;65197;50.164;8.012;2023-11-22T10:40:13;5.25;;;3.60;;
76373;SDS011;65197;50.164;8.012;2023-11-22T10:42:41;8.07;;;4.55;;
76373;SDS011;65197;50.164;8.012;2023-11-22T10:45:11;7.88;;;4.60;;
76373;SDS011;65197;50.164;8.012;2023-11-22T10:47:38;6.60;;;3.22;;
76373;SDS011;65197;50.164;8.012;2023-11-22T10:50:06;6.72;;;3.92;;
76373;SDS011;65197;50.164;8.012;2023-11-22T10:52:33;6.05;;;4.10;;
76373;SDS011;65197;50.164;8.012;2023-11-22T10:55:04;5.70;;;4.10;;
76373;SDS011;65197;50.164;8.012;2023-11-22T10:57:32;5.97;;;3.85;;
76373;SDS011;65197;50.164;8.012;2023-11-22T11:00:05;8.88;;;3.42;;
76373;SDS011;65197;50.164;8.012;2023-11-22T11:02:33;5.65;;;3.00;;
76373;SDS011;65197;50.164;8.012;2023-11-22T11:05:03;10.07;;;4.05;;
76373;SDS011;65197;50.164;8.012;2023-11-22T11:07:37;5.95;;;3.65;;
76373;SDS011;65197;50.164;8.012;2023-11-22T11:10:06;5.15;;;3.33;;
76373;SDS011;65197;50.164;8.012;2023-11-22T11:12:33;5.15;;;3.40;;
76373;SDS011;65197;50.164;8.012;2023-11-22T11:14:58;5.03;;;3.42;;
76373;SDS011;65197;50.164;8.012;2023-11-22T11:17:24;3.95;;;2.67;;
76373;SDS011;65197;50.164;8.012;2023-11-22T11:19:51;5.25;;;3.00;;
76373;SDS011;65197;50.164;8.012;2023-11-22T11:22:16;5.13;;;3.22;;
76373;SDS011;65197;50.164;8.012;2023-11-22T11:24:45;5.55;;;3.10;;
76373;SDS011;65197;50.164;8.012;2023-11-22T11:27:12;6.85;;;3.53;;
76373;SDS011;65197;50.164;8.012;2023-11-22T11:29:38;5.38;;;3.13;;
76373;SDS011;65197;50.164;8.012;2023-11-22T11:34:58;6.20;;;3.75;;
76373;SDS011;65197;50.164;8.012;2023-11-22T11:37:26;4.93;;;3.25;;
76373;SDS011;65197;50.164;8.012;2023-11-22T11:39:54;4.82;;;3.20;;
76373;SDS011;65197;50.164;8.012;2023-11-22T11:42:20;6.38;;;3.65;;
76373;SDS011;65197;50.164;8.012;2023-11-22T11:44:52;6.50;;;3.30;;
76373;SDS011;65197;50.164;8.012;2023-11-22T11:47:28;6.75;;;3.90;;
76373;SDS011;65197;50.164;8.012;2023-11-22T11:49:56;6.28;;;3.30;;
76373;SDS011;65197;50.164;8.012;2023-11-22T11:52:22;5.20;;;3.15;;
76373;SDS011;65197;50.164;8.012;2023-11-22T11:54:50;4.80;;;3.15;;
76373;SDS011;65197;50.164;8.012;2023-11-22T11:57:16;5.05;;;3.28;;
76373;SDS011;65197;50.164;8.012;2023-11-22T11:59:42;4.85;;;3.00;;
76373;SDS011;65197;50.164;8.012;2023-11-22T12:02:08;5.57;;;3.42;;
76373;SDS011;65197;50.164;8.012;2023-11-22T12:04:33;6.63;;;4.07;;
76373;SDS011;65197;50.164;8.012;2023-11-22T12:06:59;4.35;;;3.03;;
76373;SDS011;65197;50.164;8.012;2023-11-22T12:09:24;5.78;;;2.90;;
76373;SDS011;65197;50.164;8.012;2023-11-22T12:11:51;5.68;;;3.75;;
76373;SDS011;65197;50.164;8.012;2023-11-22T12:14:20;8.00;;;3.80;;
76373;SDS011;65197;50.164;8.012;2023-11-22T12:16:49;6.32;;;4.00;;
76373;SDS011;65197;50.164;8.012;2023-11-22T12:19:25;5.32;;;3.40;;
76373;SDS011;65197;50.164;8.012;2023-11-22T12:21:52;7.18;;;3.40;;
76373;SDS011;65197;50.164;8.012;2023-11-22T12:24:18;5.35;;;3.17;;
76373;SDS011;65197;50.164;8.012;2023-11-22T12:26:47;4.95;;;3.15;;
76373;SDS011;65197;50.164;8.012;2023-11-22T12:29:19;4.13;;;2.90;;
76373;SDS011;65197;50.164;8.012;2023-11-22T12:31:49;5.32;;;3.30;;
76373;SDS011;65197;50.164;8.012;2023-11-22T12:34:17;6.45;;;3.25;;
76373;SDS011;65197;50.164;8.012;2023-11-22T12:36:45;6.22;;;3.65;;
76373;SDS011;65197;50.164;8.012;2023-11-22T12:39:12;4.55;;;2.80;;
76373;SDS011;65197;50.164;8.012;2023-11-22T12:41:48;5.78;;;3.40;;
76373;SDS011;65197;50.164;8.012;2023-11-22T12:44:18;7.28;;;4.20;;
76373;SDS011;65197;50.164;8.012;2023-11-22T12:46:54;4.38;;;2.90;;
76373;SDS011;65197;50.164;8.012;2023-11-22T12:49:24;8.02;;;3.67;;
76373;SDS011;65197;50.164;8.012;2023-11-22T12:51:54;5.88;;;3.25;;
76373;SDS011;65197;50.164;8.012;2023-11-22T12:54:22;5.50;;;3.05;;
76373;SDS011;65197;50.164;8.012;2023-11-22T12:56:50;6.03;;;3.33;;
76373;SDS011;65197;50.164;8.012;2023-11-22T12:59:23;5.90;;;3.20;;
76373;SDS011;65197;50.164;8.012;2023-11-22T13:01:49;5.50;;;3.65;;
76373;SDS011;65197;50.164;8.012;2023-11-22T13:04:15;5.43;;;3.10;;
76373;SDS011;65197;50.164;8.012;2023-11-22T13:06:41;5.93;;;3.53;;
76373;SDS011;65197;50.164;8.012;2023-11-22T13:09:07;4.68;;;3.13;;
76373;SDS011;65197;50.164;8.012;2023-11-22T13:11:39;4.47;;;2.75;;
76373;SDS011;65197;50.164;8.012;2023-11-22T13:14:05;3.53;;;2.60;;
76373;SDS011;65197;50.164;8.012;2023-11-22T13:16:31;4.13;;;2.78;;
76373;SDS011;65197;50.164;8.012;2023-11-22T13:18:59;3.90;;;2.70;;
76373;SDS011;65197;50.164;8.012;2023-11-22T13:21:24;4.75;;;2.97;;
76373;SDS011;65197;50.164;8.012;2023-11-22T13:23:49;4.32;;;2.15;;
76373;SDS011;65197;50.164;8.012;2023-11-22T13:26:15;4.72;;;2.78;;
76373;SDS011;65197;50.164;8.012;2023-11-22T13:28:41;4.95;;;3.17;;
76373;SDS011;65197;50.164;8.012;2023-11-22T13:31:07;5.80;;;3.10;;
76373;SDS011;65197;50.164;8.012;2023-11-22T13:33:33;4.40;;;2.85;;
76373;SDS011;65197;50.164;8.012;2023-11-22T13:35:59;4.50;;;2.63;;
76373;SDS011;65197;50.164;8.012;2023-11-22T13:38:24;4.60;;;3.00;;
76373;SDS011;65197;50.164;8.012;2023-11-22T13:40:50;5.07;;;3.00;;
76373;SDS011;65197;50.164;8.012;2023-11-22T13:43:16;7.10;;;3.10;;
76373;SDS011;65197;50.164;8.012;2023-11-22T13:45:43;5.40;;;3.00;;
76373;SDS011;65197;50.164;8.012;2023-11-22T13:48:10;5.35;;;3.20;;
76373;SDS011;65197;50.164;8.012;2023-11-22T13:50:36;4.53;;;2.80;;
76373;SDS011;65197;50.164;8.012;2023-11-22T13:53:02;6.28;;;3.33;;
76373;SDS011;65197;50.164;8.012;2023-11-22T13:55:29;5.22;;;3.55;;
76373;SDS011;65197;50.164;8.012;2023-11-22T13:57:56;5.80;;;3.47;;
76373;SDS011;65197;50.164;8.012;2023-11-22T14:00:28;4.40;;;2.50;;
76373;SDS011;65197;50.164;8.012;2023-11-22T14:02:58;5.63;;;3.00;;
76373;SDS011;65197;50.164;8.012;2023-11-22T14:05:31;6.05;;;2.88;;
76373;SDS011;65197;50.164;8.012;2023-11-22T14:07:58;5.18;;;2.80;;
76373;SDS011;65197;50.164;8.012;2023-11-22T14:10:24;6.60;;;3.05;;
76373;SDS011;65197;50.164;8.012;2023-11-22T14:12:49;6.30;;;3.25;;
76373;SDS011;65197;50.164;8.012;2023-11-22T14:15:16;6.72;;;3.30;;
76373;SDS011;65197;50.164;8.012;2023-11-22T14:17:42;5.75;;;3.10;;
76373;SDS011;65197;50.164;8.012;2023-11-22T14:20:08;5.05;;;3.63;;
76373;SDS011;65197;50.164;8.012;2023-11-22T14:22:37;5.88;;;3.35;;
76373;SDS011;65197;50.164;8.012;2023-11-22T14:25:04;6.70;;;4.18;;
76373;SDS011;65197;50.164;8.012;2023-11-22T14:27:36;7.88;;;3.70;;
76373;SDS011;65197;50.164;8.012;2023-11-22T14:30:09;5.97;;;3.00;;
76373;SDS011;65197;50.164;8.012;2023-11-22T14:32:39;4.78;;;2.72;;
76373;SDS011;65197;50.164;8.012;2023-11-22T14:35:05;6.82;;;3.15;;
76373;SDS011;65197;50.164;8.012;2023-11-22T14:37:33;6.63;;;3.67;;
76373;SDS011;65197;50.164;8.012;2023-11-22T14:39:59;3.97;;;2.78;;
76373;SDS011;65197;50.164;8.012;2023-11-22T14:42:24;3.70;;;2.30;;
76373;SDS011;65197;50.164;8.012;2023-11-22T14:44:50;4.72;;;2.65;;
76373;SDS011;65197;50.164;8.012;2023-11-22T14:47:16;4.53;;;2.95;;
76373;SDS011;65197;50.164;8.012;2023-11-22T14:49:48;3.47;;;2.42;;
76373;SDS011;65197;50.164;8.012;2023-11-22T14:52:16;4.10;;;2.30;;
76373;SDS011;65197;50.164;8.012;2023-11-22T14:54:44;6.50;;;3.10;;